Time;durP1;ratioP1;P1;durP2;ratioP2;P2;SDS_P1;SDS_P2;PMS_P1;PMS_P2;Temp;Humidity;BMP_temperature;BMP_pressure;BME280_temperature;BME280_humidity;BME280_pressure;Samples;Min_cycle;Max_cycle;Signal;HPM_P1;HPM_P2
2023/08/04 00:02:08;;;;;;;;;;;;;;;-144.99;nan;52403.25;5002461;28;20023;-68
2023/08/04 00:04:34;;;;;;;;;;;;;;;-144.99;nan;52448.09;5004730;28;20000;-66
2023/08/04 00:07:01;;;;;;;;;;;;;;;-144.99;nan;52450.13;4995994;28;20020;-66
2023/08/04 00:09:27;;;;;;;;;;;;;;;-144.99;nan;52444.03;5005422;28;20373;-66
2023/08/04 00:11:55;;;;;;;;;;;;;;;-144.99;nan;52468.47;5005302;28;20060;-65
2023/08/04 00:14:21;;;;;;;;;;;;;;;-144.99;nan;52484.78;4998287;28;20056;-65
2023/08/04 00:16:48;;;;;;;;;;;;;;;-144.99;nan;52452.16;4996935;28;20336;-66
2023/08/04 00:19:14;;;;;;;;;;;;;;;-144.99;nan;52460.31;4992270;28;20001;-65
2023/08/04 00:21:41;;;;;;;;;;;;;;;-144.99;nan;52450.13;4997429;28;19962;-66
2023/08/04 00:24:07;;;;;;;;;;;;;;;-144.99;nan;52448.09;5000098;28;20116;-66
2023/08/04 00:26:34;;;;;;;;;;;;;;;-144.99;nan;52470.50;4992427;28;20381;-65
2023/08/04 00:29:01;;;;;;;;;;;;;;;-144.99;nan;52497.00;4990124;28;20056;-65
2023/08/04 00:31:28;;;;;;;;;;;;;;;-144.99;nan;52464.41;4994488;28;20005;-65
2023/08/04 00:33:55;;;;;;;;;;;;;;;-144.99;nan;52484.78;4998405;28;19980;-65
2023/08/04 00:36:22;;;;;;;;;;;;;;;-144.99;nan;52437.91;4992181;28;19952;-66
2023/08/04 00:38:48;;;;;;;;;;;;;;;-144.99;nan;52484.78;4994564;28;20032;-66
2023/08/04 00:41:14;;;;;;;;;;;;;;;-144.99;nan;52450.13;5000740;28;20100;-66
2023/08/04 00:43:41;;;;;;;;;;;;;;;-144.99;nan;52460.31;4994607;28;20422;-66
2023/08/04 00:46:09;;;;;;;;;;;;;;;-144.99;nan;52492.94;4996328;28;19991;-66
2023/08/04 00:48:37;;;;;;;;;;;;;;;-144.99;nan;52450.13;4993257;28;20064;-66
2023/08/04 00:51:04;;;;;;;;;;;;;;;-144.99;nan;52472.56;4995294;28;20445;-65
2023/08/04 00:53:31;;;;;;;;;;;;;;;-144.99;nan;52472.56;4999408;28;20155;-66
2023/08/04 00:55:57;;;;;;;;;;;;;;;-144.99;nan;52472.56;4992849;28;19998;-66
2023/08/04 00:58:24;;;;;;;;;;;;;;;-144.99;nan;52452.16;4996694;28;19990;-65
2023/08/04 01:00:50;;;;;;;;;;;;;;;-144.99;nan;52488.84;4998047;28;20033;-63
2023/08/04 01:03:18;;;;;;;;;;;;;;;-144.99;nan;52484.78;4995225;28;20053;-64
2023/08/04 01:05:47;;;;;;;;;;;;;;;-144.99;nan;52452.16;4994570;28;20475;-64
2023/08/04 01:08:22;;;;;;;;;;;;;;;-144.99;nan;52464.41;5003941;28;19993;-66
2023/08/04 01:10:51;;;;;;;;;;;;;;;-144.99;nan;52509.25;4997507;28;19994;-65
2023/08/04 01:13:21;;;;;;;;;;;;;;;-144.99;nan;52448.09;4993709;28;19951;-65
2023/08/04 01:15:48;;;;;;;;;;;;;;;-144.99;nan;52452.16;4996164;28;20038;-65
2023/08/04 01:18:19;;;;;;;;;;;;;;;-144.99;nan;52476.63;4998377;28;20029;-65
2023/08/04 01:20:45;;;;;;;;;;;;;;;-144.99;nan;52482.75;4998851;28;20041;-65
2023/08/04 01:23:13;;;;;;;;;;;;;;;-144.99;nan;52462.34;4995193;28;20025;-65
2023/08/04 01:25:39;;;;;;;;;;;;;;;-144.99;nan;52507.19;4997728;28;19973;-65
2023/08/04 01:28:09;;;;;;;;;;;;;;;-144.99;nan;52472.56;4994791;28;20359;-63
2023/08/04 01:30:36;;;;;;;;;;;;;;;-144.99;nan;52480.72;4990614;28;20004;-63
2023/08/04 01:33:02;;;;;;;;;;;;;;;-144.99;nan;52452.16;4990901;28;20015;-62
2023/08/04 01:35:29;;;;;;;;;;;;;;;-144.99;nan;52484.78;5002028;28;19945;-62
2023/08/04 01:37:56;;;;;;;;;;;;;;;-144.99;nan;52458.28;4998081;28;20043;-62
2023/08/04 01:40:23;;;;;;;;;;;;;;;-144.99;nan;52484.78;4992643;28;19945;-65
2023/08/04 01:42:50;;;;;;;;;;;;;;;-144.99;nan;52423.63;5002027;28;20001;-67
2023/08/04 01:45:17;;;;;;;;;;;;;;;-144.99;nan;52454.22;4993911;28;19949;-67
2023/08/04 01:47:43;;;;;;;;;;;;;;;-144.99;nan;52468.47;4999155;28;20001;-66
2023/08/04 01:50:10;;;;;;;;;;;;;;;-144.99;nan;52452.16;4999423;28;20769;-66
2023/08/04 01:52:37;;;;;;;;;;;;;;;-144.99;nan;52444.03;4999331;28;20064;-65
2023/08/04 01:55:03;;;;;;;;;;;;;;;-144.99;nan;52472.56;4998837;28;20679;-70
2023/08/04 01:57:31;;;;;;;;;;;;;;;-144.99;nan;52456.25;4996659;28;20014;-66
2023/08/04 01:59:58;;;;;;;;;;;;;;;-144.99;nan;52484.78;4997526;28;20289;-66
2023/08/04 02:02:24;;;;;;;;;;;;;;;-144.99;nan;52476.63;4998584;28;19967;-66
2023/08/04 02:04:51;;;;;;;;;;;;;;;-144.99;nan;52407.31;4997351;28;19949;-65
2023/08/04 02:07:17;;;;;;;;;;;;;;;-144.99;nan;52439.94;4994001;28;19987;-66
2023/08/04 02:09:44;;;;;;;;;;;;;;;-144.99;nan;52488.84;4995060;28;19978;-65
2023/08/04 02:12:10;;;;;;;;;;;;;;;-144.99;nan;52458.28;4994754;28;20573;-65
2023/08/04 02:14:38;;;;;;;;;;;;;;;-144.99;nan;52468.47;4996558;28;19979;-65
2023/08/04 02:17:05;;;;;;;;;;;;;;;-144.99;nan;52480.72;4995703;28;20083;-65
2023/08/04 02:19:31;;;;;;;;;;;;;;;-144.99;nan;52448.09;4995910;28;20703;-66
2023/08/04 02:21:57;;;;;;;;;;;;;;;-144.99;nan;52448.09;5004048;28;20008;-66
2023/08/04 02:24:24;;;;;;;;;;;;;;;-144.99;nan;52464.41;5009813;28;20002;-67
2023/08/04 02:26:50;;;;;;;;;;;;;;;-144.99;nan;52456.25;5001024;28;20292;-69
2023/08/04 02:29:17;;;;;;;;;;;;;;;-144.99;nan;52439.94;5001113;28;19970;-68
2023/08/04 02:31:45;;;;;;;;;;;;;;;-144.99;nan;52456.25;5003302;28;19978;-68
2023/08/04 02:34:11;;;;;;;;;;;;;;;-144.99;nan;52444.03;4996835;28;19978;-66
2023/08/04 02:36:38;;;;;;;;;;;;;;;-144.99;nan;52468.47;4996897;28;19955;-64
2023/08/04 02:39:04;;;;;;;;;;;;;;;-144.99;nan;52464.41;4994728;28;20049;-60
2023/08/04 02:41:31;;;;;;;;;;;;;;;-144.99;nan;52468.47;4994596;28;20007;-61
2023/08/04 02:43:57;;;;;;;;;;;;;;;-144.99;nan;52517.41;5001593;28;19982;-60
2023/08/04 02:46:25;;;;;;;;;;;;;;;-144.99;nan;52474.59;5002425;28;20064;-60
2023/08/04 02:48:53;;;;;;;;;;;;;;;-144.99;nan;52490.91;5000459;28;19963;-60
2023/08/04 02:51:19;;;;;;;;;;;;;;;-144.99;nan;52444.03;4994299;28;20056;-61
2023/08/04 02:53:47;;;;;;;;;;;;;;;-144.99;nan;52472.56;4995753;28;19980;-62
2023/08/04 02:56:14;;;;;;;;;;;;;;;-144.99;nan;52437.91;5001226;28;19977;-61
2023/08/04 02:58:40;;;;;;;;;;;;;;;-144.99;nan;52439.94;4995558;28;20425;-61
2023/08/04 03:01:07;;;;;;;;;;;;;;;-144.99;nan;52439.94;5000849;28;20454;-61
2023/08/04 03:03:34;;;;;;;;;;;;;;;-144.99;nan;52444.03;5001956;28;20019;-61
2023/08/04 03:06:02;;;;;;;;;;;;;;;-144.99;nan;52435.88;5001295;28;20483;-61
2023/08/04 03:08:29;;;;;;;;;;;;;;;-144.99;nan;52423.63;4996199;28;20069;-62
2023/08/04 03:10:56;;;;;;;;;;;;;;;-144.99;nan;52431.78;4995913;28;19961;-62
2023/08/04 03:13:22;;;;;;;;;;;;;;;-144.99;nan;52448.09;5002449;28;19955;-62
2023/08/04 03:15:54;;;;;;;;;;;;;;;-144.99;nan;52505.16;5000728;28;19999;-62
2023/08/04 03:18:21;;;;;;;;;;;;;;;-144.99;nan;52448.09;4994360;28;19950;-62
2023/08/04 03:20:47;;;;;;;;;;;;;;;-144.99;nan;52439.94;4995761;28;19965;-63
2023/08/04 03:23:15;;;;;;;;;;;;;;;-144.99;nan;52407.31;4992973;28;19952;-64
2023/08/04 03:25:41;;;;;;;;;;;;;;;-144.99;nan;52435.88;4992410;28;20072;-64
2023/08/04 03:28:08;;;;;;;;;;;;;;;-144.99;nan;52454.22;5000496;28;19968;-64
2023/08/04 03:30:35;;;;;;;;;;;;;;;-144.99;nan;52452.16;5001634;28;19948;-64
2023/08/04 03:33:01;;;;;;;;;;;;;;;-144.99;nan;52460.31;4999976;28;20383;-65
2023/08/04 03:35:28;;;;;;;;;;;;;;;-144.99;nan;52476.63;4993499;28;19953;-66
2023/08/04 03:37:54;;;;;;;;;;;;;;;-144.99;nan;52433.81;5008553;28;19945;-66
2023/08/04 03:40:22;;;;;;;;;;;;;;;-144.99;nan;52456.25;4998816;28;19980;-65
2023/08/04 03:42:48;;;;;;;;;;;;;;;-144.99;nan;52444.03;4995965;28;19989;-65
2023/08/04 03:45:15;;;;;;;;;;;;;;;-144.99;nan;52427.72;5002518;28;19964;-65
2023/08/04 03:47:41;;;;;;;;;;;;;;;-144.99;nan;52490.91;4991567;28;20003;-66
2023/08/04 03:50:08;;;;;;;;;;;;;;;-144.99;nan;52472.56;4990957;28;19994;-66
2023/08/04 03:52:34;;;;;;;;;;;;;;;-144.99;nan;52452.16;4989730;28;19982;-66
2023/08/04 03:55:01;;;;;;;;;;;;;;;-144.99;nan;52454.22;4998388;28;20029;-64
2023/08/04 03:57:29;;;;;;;;;;;;;;;-144.99;nan;52460.31;4998763;28;19998;-63
2023/08/04 03:59:55;;;;;;;;;;;;;;;-144.99;nan;52448.09;4995932;28;20067;-63
2023/08/04 04:02:22;;;;;;;;;;;;;;;-144.99;nan;52468.47;4996241;28;20106;-64
2023/08/04 04:04:48;;;;;;;;;;;;;;;-144.99;nan;52456.25;5002196;28;20029;-62
2023/08/04 04:07:15;;;;;;;;;;;;;;;-144.99;nan;52431.78;4997618;28;20034;-63
2023/08/04 04:09:41;;;;;;;;;;;;;;;-144.99;nan;52452.16;4995260;28;20032;-63
2023/08/04 04:12:08;;;;;;;;;;;;;;;-144.99;nan;52476.63;4995772;28;20372;-66
2023/08/04 04:14:36;;;;;;;;;;;;;;;-144.99;nan;52458.28;4993444;28;19949;-67
2023/08/04 04:17:03;;;;;;;;;;;;;;;-144.99;nan;52456.25;4996166;28;20047;-66
2023/08/04 04:19:29;;;;;;;;;;;;;;;-144.99;nan;52468.47;4994457;28;19949;-66
2023/08/04 04:21:56;;;;;;;;;;;;;;;-144.99;nan;52464.41;4991663;28;19958;-63
2023/08/04 04:24:22;;;;;;;;;;;;;;;-144.99;nan;52419.56;4992640;28;20044;-64
2023/08/04 04:26:49;;;;;;;;;;;;;;;-144.99;nan;52476.63;4991490;28;20486;-69
2023/08/04 04:29:15;;;;;;;;;;;;;;;-144.99;nan;52429.75;4991310;28;20035;-67
2023/08/04 04:31:43;;;;;;;;;;;;;;;-144.99;nan;52456.25;4996852;28;19964;-67
2023/08/04 04:34:10;;;;;;;;;;;;;;;-144.99;nan;52427.72;4998628;28;20072;-67
2023/08/04 04:36:36;;;;;;;;;;;;;;;-144.99;nan;52492.94;4993067;28;20441;-67
2023/08/04 04:39:03;;;;;;;;;;;;;;;-144.99;nan;52448.09;4994226;28;20037;-67
2023/08/04 04:41:30;;;;;;;;;;;;;;;-144.99;nan;52427.72;4990471;28;20003;-68
2023/08/04 04:43:57;;;;;;;;;;;;;;;-144.99;nan;52460.31;4993322;28;19946;-67
2023/08/04 04:46:24;;;;;;;;;;;;;;;-144.99;nan;52480.72;4991159;28;19963;-68
2023/08/04 04:48:52;;;;;;;;;;;;;;;-144.99;nan;52444.03;4994096;28;19968;-68
2023/08/04 04:51:18;;;;;;;;;;;;;;;-144.99;nan;52450.13;4997569;28;20062;-67
2023/08/04 04:53:45;;;;;;;;;;;;;;;-144.99;nan;52425.66;4994949;28;20367;-64
2023/08/04 04:56:11;;;;;;;;;;;;;;;-144.99;nan;52472.56;4998012;28;20317;-74
2023/08/04 04:58:38;;;;;;;;;;;;;;;-144.99;nan;52452.16;4997784;28;19995;-74
2023/08/04 05:01:06;;;;;;;;;;;;;;;-144.99;nan;52482.75;5001471;28;19968;-75
2023/08/04 05:03:33;;;;;;;;;;;;;;;-144.99;nan;52435.88;4994549;28;19956;-75
2023/08/04 05:06:01;;;;;;;;;;;;;;;-144.99;nan;52441.97;4993253;28;19951;-75
2023/08/04 05:08:27;;;;;;;;;;;;;;;-144.99;nan;52431.78;4990084;28;20030;-72
2023/08/04 05:11:05;;;;;;;;;;;;;;;-144.99;nan;52448.09;4679463;28;10000428;-73
2023/08/04 05:13:31;;;;;;;;;;;;;;;-144.99;nan;52448.09;4997652;28;20033;-72
2023/08/04 05:15:58;;;;;;;;;;;;;;;-144.99;nan;52427.72;4991890;28;19946;-72
2023/08/04 05:18:25;;;;;;;;;;;;;;;-144.99;nan;52433.81;4992915;28;20416;-73
2023/08/04 05:20:51;;;;;;;;;;;;;;;-144.99;nan;52452.16;4997152;28;20262;-73
2023/08/04 05:23:19;;;;;;;;;;;;;;;-144.99;nan;52464.41;4998871;28;20006;-72
2023/08/04 05:25:45;;;;;;;;;;;;;;;-144.99;nan;52468.47;4996023;28;19948;-72
2023/08/04 05:28:23;;;;;;;;;;;;;;;-144.99;nan;52423.63;4990127;28;19958;-72
2023/08/04 05:30:49;;;;;;;;;;;;;;;-144.99;nan;52429.75;4991771;28;20200;-71
2023/08/04 05:33:15;;;;;;;;;;;;;;;-144.99;nan;52452.16;4995662;28;19986;-73
2023/08/04 05:35:44;;;;;;;;;;;;;;;-144.99;nan;52464.41;4991598;28;20069;-71
2023/08/04 05:38:11;;;;;;;;;;;;;;;-144.99;nan;52472.56;4995305;28;20495;-71
2023/08/04 05:40:39;;;;;;;;;;;;;;;-144.99;nan;52431.78;5002868;28;20054;-71
2023/08/04 05:43:06;;;;;;;;;;;;;;;-144.99;nan;52411.41;4998686;28;20491;-72
2023/08/04 05:45:34;;;;;;;;;;;;;;;-144.99;nan;52450.13;4989345;28;20301;-71
2023/08/04 05:48:01;;;;;;;;;;;;;;;-144.99;nan;52468.47;4993387;28;20348;-71
2023/08/04 05:50:27;;;;;;;;;;;;;;;-144.99;nan;52452.16;4999518;28;20189;-71
2023/08/04 05:52:54;;;;;;;;;;;;;;;-144.99;nan;52456.25;4993199;28;20450;-71
2023/08/04 05:55:20;;;;;;;;;;;;;;;-144.99;nan;52399.19;4997924;28;19946;-71
2023/08/04 05:57:48;;;;;;;;;;;;;;;-144.99;nan;52427.72;4995562;28;19969;-72
2023/08/04 06:00:15;;;;;;;;;;;;;;;-144.99;nan;52476.63;4995792;28;19950;-71
2023/08/04 06:02:43;;;;;;;;;;;;;;;-144.99;nan;52456.25;4989238;28;19969;-72
2023/08/04 06:05:10;;;;;;;;;;;;;;;-144.99;nan;52464.41;4992450;28;20346;-72
2023/08/04 06:07:36;;;;;;;;;;;;;;;-144.99;nan;52464.41;4987427;28;20053;-71
2023/08/04 06:10:03;;;;;;;;;;;;;;;-144.99;nan;52452.16;4987940;28;20006;-73
2023/08/04 06:12:30;;;;;;;;;;;;;;;-144.99;nan;52448.09;4991242;28;20065;-73
2023/08/04 06:14:58;;;;;;;;;;;;;;;-144.99;nan;52468.47;5002675;28;19953;-73
2023/08/04 06:17:25;;;;;;;;;;;;;;;-144.99;nan;52431.78;4995108;28;20414;-72
2023/08/04 06:19:51;;;;;;;;;;;;;;;-144.99;nan;52435.88;4989026;28;20035;-72
2023/08/04 06:22:18;;;;;;;;;;;;;;;-144.99;nan;52488.84;4994614;28;19968;-73
2023/08/04 06:24:44;;;;;;;;;;;;;;;-144.99;nan;52419.56;4998011;28;20427;-72
2023/08/04 06:27:11;;;;;;;;;;;;;;;-144.99;nan;52427.72;4998914;28;19952;-72
2023/08/04 06:29:37;;;;;;;;;;;;;;;-144.99;nan;52448.09;4997907;28;19968;-72
2023/08/04 06:32:07;;;;;;;;;;;;;;;-144.99;nan;52448.09;4994849;28;19969;-73
2023/08/04 06:34:34;;;;;;;;;;;;;;;-144.99;nan;52407.31;5007161;28;19966;-73
2023/08/04 06:37:00;;;;;;;;;;;;;;;-144.99;nan;52427.72;5003759;28;20006;-73
2023/08/04 06:39:27;;;;;;;;;;;;;;;-144.99;nan;52407.31;5003370;28;19983;-72
2023/08/04 06:41:53;;;;;;;;;;;;;;;-144.99;nan;52427.72;5015371;28;19965;-73
2023/08/04 06:44:20;;;;;;;;;;;;;;;-144.99;nan;52378.78;5002204;28;20311;-72
2023/08/04 06:46:46;;;;;;;;;;;;;;;-144.99;nan;52478.66;5001812;28;20001;-73
2023/08/04 06:49:14;;;;;;;;;;;;;;;-144.99;nan;52419.56;4997536;28;20029;-72
2023/08/04 06:51:41;;;;;;;;;;;;;;;-144.99;nan;52419.56;4996080;28;20031;-72
2023/08/04 06:54:07;;;;;;;;;;;;;;;-144.99;nan;52382.88;4994220;28;20033;-73
2023/08/04 06:56:34;;;;;;;;;;;;;;;-144.99;nan;52444.03;4997866;28;20178;-74
2023/08/04 06:59:00;;;;;;;;;;;;;;;-144.99;nan;52423.63;5000784;28;19998;-72
2023/08/04 07:01:27;;;;;;;;;;;;;;;-144.99;nan;52423.63;4655266;28;10000043;-73
2023/08/04 07:03:53;;;;;;;;;;;;;;;-144.99;nan;52407.31;4995559;28;20374;-72
2023/08/04 07:06:21;;;;;;;;;;;;;;;-144.99;nan;52435.88;4998066;28;19992;-73
2023/08/04 07:08:47;;;;;;;;;;;;;;;-144.99;nan;52358.41;4995656;28;20404;-72
2023/08/04 07:11:15;;;;;;;;;;;;;;;-144.99;nan;52386.94;4995780;28;20011;-72
2023/08/04 07:13:41;;;;;;;;;;;;;;;-144.99;nan;52415.47;4990861;28;19949;-72
2023/08/04 07:16:08;;;;;;;;;;;;;;;-144.99;nan;52382.88;4991411;28;20509;-73
2023/08/04 07:18:34;;;;;;;;;;;;;;;-144.99;nan;52395.09;4993390;28;19949;-72
2023/08/04 07:21:04;;;;;;;;;;;;;;;-144.99;nan;52452.16;4995116;28;19964;-73
2023/08/04 07:23:32;;;;;;;;;;;;;;;-144.99;nan;52386.94;5000804;28;19945;-71
2023/08/04 07:25:58;;;;;;;;;;;;;;;-144.99;nan;52376.75;4997235;28;20068;-73
2023/08/04 07:28:25;;;;;;;;;;;;;;;-144.99;nan;52452.16;4995120;28;20055;-73
2023/08/04 07:30:51;;;;;;;;;;;;;;;-144.99;nan;52378.78;5001825;28;20024;-73
2023/08/04 07:33:19;;;;;;;;;;;;;;;-144.99;nan;52460.31;5001970;28;20370;-72
2023/08/04 07:35:45;;;;;;;;;;;;;;;-144.99;nan;52431.78;5004661;28;20001;-74
2023/08/04 07:38:12;;;;;;;;;;;;;;;-144.99;nan;52444.03;5003378;28;19950;-73
2023/08/04 07:40:40;;;;;;;;;;;;;;;-144.99;nan;52441.97;5002136;28;19949;-74
2023/08/04 07:43:10;;;;;;;;;;;;;;;-144.99;nan;52403.25;4991808;28;19956;-73
2023/08/04 07:45:37;;;;;;;;;;;;;;;-144.99;nan;52421.59;4995805;28;19962;-73
2023/08/04 07:48:03;;;;;;;;;;;;;;;-144.99;nan;52403.25;5000040;28;19955;-74
2023/08/04 07:50:30;;;;;;;;;;;;;;;-144.99;nan;52409.38;5002057;28;20020;-73
2023/08/04 07:52:57;;;;;;;;;;;;;;;-144.99;nan;52437.91;4997787;28;20433;-73
2023/08/04 07:55:23;;;;;;;;;;;;;;;-144.99;nan;52407.31;4997336;28;19995;-73
2023/08/04 07:57:51;;;;;;;;;;;;;;;-144.99;nan;52399.19;5000320;28;20456;-72
2023/08/04 08:00:18;;;;;;;;;;;;;;;-144.99;nan;52391.03;4994986;28;19955;-73
2023/08/04 08:02:44;;;;;;;;;;;;;;;-144.99;nan;52407.31;4989038;28;19965;-73
2023/08/04 08:05:11;;;;;;;;;;;;;;;-144.99;nan;52419.56;4996485;28;19953;-73
2023/08/04 08:07:37;;;;;;;;;;;;;;;-144.99;nan;52433.81;4999608;28;20377;-74
2023/08/04 08:10:04;;;;;;;;;;;;;;;-144.99;nan;52464.41;5001353;28;20424;-73
2023/08/04 08:12:31;;;;;;;;;;;;;;;-144.99;nan;52395.09;4993125;28;19972;-72
2023/08/04 08:14:58;;;;;;;;;;;;;;;-144.99;nan;52417.53;5001003;28;19955;-73
2023/08/04 08:17:25;;;;;;;;;;;;;;;-144.99;nan;52413.44;4993410;28;19996;-73
2023/08/04 08:19:52;;;;;;;;;;;;;;;-144.99;nan;52391.03;4990017;28;19958;-73
2023/08/04 08:22:18;;;;;;;;;;;;;;;-144.99;nan;52346.19;4996168;28;19961;-72
2023/08/04 08:24:45;;;;;;;;;;;;;;;-144.99;nan;52415.47;4994067;28;20002;-73
2023/08/04 08:27:12;;;;;;;;;;;;;;;-144.99;nan;52358.41;4999493;28;19985;-74
2023/08/04 08:29:40;;;;;;;;;;;;;;;-144.99;nan;52378.78;4992337;28;20056;-73
2023/08/04 08:32:09;;;;;;;;;;;;;;;-144.99;nan;52382.88;4994691;28;20054;-73
2023/08/04 08:34:35;;;;;;;;;;;;;;;-144.99;nan;52370.63;4994370;28;20405;-74
2023/08/04 08:37:02;;;;;;;;;;;;;;;-144.99;nan;52366.56;4995205;28;19946;-73
2023/08/04 08:39:29;;;;;;;;;;;;;;;-144.99;nan;52382.88;4996328;28;20385;-73
2023/08/04 08:41:57;;;;;;;;;;;;;;;-144.99;nan;52378.78;4997736;28;20062;-73
2023/08/04 08:44:24;;;;;;;;;;;;;;;-144.99;nan;52366.56;4995359;28;20417;-74
2023/08/04 08:46:51;;;;;;;;;;;;;;;-144.99;nan;52421.59;4993261;28;20468;-75
2023/08/04 08:49:21;;;;;;;;;;;;;;;-144.99;nan;52372.69;5004238;28;19953;-74
2023/08/04 08:51:50;;;;;;;;;;;;;;;-144.99;nan;52399.19;4996205;28;19970;-73
2023/08/04 08:54:17;;;;;;;;;;;;;;;-144.99;nan;52362.50;4989802;28;19950;-74
2023/08/04 08:56:44;;;;;;;;;;;;;;;-144.99;nan;52374.72;4987894;28;20005;-73
2023/08/04 08:59:10;;;;;;;;;;;;;;;-144.99;nan;52388.97;4995133;28;20089;-74
2023/08/04 09:01:37;;;;;;;;;;;;;;;-144.99;nan;52403.25;5003016;28;20509;-76
2023/08/04 09:04:05;;;;;;;;;;;;;;;-144.99;nan;52342.09;5001691;28;20449;-75
2023/08/04 09:06:33;;;;;;;;;;;;;;;-144.99;nan;52362.50;5009259;28;20383;-74
2023/08/04 09:09:02;;;;;;;;;;;;;;;-144.99;nan;52370.63;4993610;28;19969;-74
2023/08/04 09:11:28;;;;;;;;;;;;;;;-144.99;nan;52354.34;4988891;28;20204;-75
2023/08/04 09:13:56;;;;;;;;;;;;;;;-144.99;nan;52378.78;4995956;28;19944;-74
2023/08/04 09:16:31;;;;;;;;;;;;;;;-144.99;nan;52366.56;4998786;28;20021;-74
2023/08/04 09:19:01;;;;;;;;;;;;;;;-144.99;nan;52403.25;5017739;28;19947;-74
2023/08/04 09:21:27;;;;;;;;;;;;;;;-144.99;nan;52386.94;5008581;28;19968;-76
2023/08/04 09:23:55;;;;;;;;;;;;;;;-144.99;nan;52376.75;4992209;28;20537;-75
2023/08/04 09:26:22;;;;;;;;;;;;;;;-144.99;nan;52403.25;4995219;28;19983;-74
2023/08/04 09:29:03;;;;;;;;;;;;;;;-144.99;nan;52382.88;4996226;28;19991;-75
2023/08/04 09:31:34;;;;;;;;;;;;;;;-144.99;nan;52382.88;5001537;28;20375;-74
2023/08/04 09:34:03;;;;;;;;;;;;;;;-144.99;nan;52391.03;4999046;28;19944;-75
2023/08/04 09:36:30;;;;;;;;;;;;;;;-144.99;nan;52372.69;5001222;28;20005;-75
2023/08/04 09:39:04;;;;;;;;;;;;;;;-144.99;nan;52415.47;4996198;28;19980;-74
2023/08/04 09:41:34;;;;;;;;;;;;;;;-144.99;nan;52415.47;4994529;28;19966;-71
2023/08/04 09:44:05;;;;;;;;;;;;;;;-144.99;nan;52419.56;4996439;28;20414;-71
2023/08/04 09:46:31;;;;;;;;;;;;;;;-144.99;nan;52413.44;5002065;28;20006;-72
2023/08/04 09:48:58;;;;;;;;;;;;;;;-144.99;nan;52407.31;4990841;28;19947;-71
2023/08/04 09:51:25;;;;;;;;;;;;;;;-144.99;nan;52427.72;5001125;28;19965;-72
2023/08/04 09:53:54;;;;;;;;;;;;;;;-144.99;nan;52415.47;4998095;28;19977;-72
2023/08/04 09:56:23;;;;;;;;;;;;;;;-144.99;nan;52423.63;4995029;28;20425;-72
2023/08/04 09:58:50;;;;;;;;;;;;;;;-144.99;nan;52419.56;4997463;28;20349;-73
2023/08/04 10:01:17;;;;;;;;;;;;;;;-144.99;nan;52358.41;4996384;28;20454;-72
2023/08/04 10:03:47;;;;;;;;;;;;;;;-144.99;nan;52399.19;4995578;28;19995;-72
2023/08/04 10:06:14;;;;;;;;;;;;;;;-144.99;nan;52370.63;4997066;28;20005;-72
2023/08/04 10:08:40;;;;;;;;;;;;;;;-144.99;nan;52348.22;5001706;28;20469;-72
2023/08/04 10:11:07;;;;;;;;;;;;;;;-144.99;nan;52350.25;4998964;28;19969;-72
2023/08/04 10:13:38;;;;;;;;;;;;;;;-144.99;nan;52342.09;5000599;28;19960;-74
2023/08/04 10:16:06;;;;;;;;;;;;;;;-144.99;nan;52378.78;5010406;28;19949;-73
2023/08/04 10:18:50;;;;;;;;;;;;;;;-144.99;nan;52395.09;5021046;28;19947;-74
2023/08/04 10:21:17;;;;;;;;;;;;;;;-144.99;nan;52407.31;5000234;28;20024;-73
2023/08/04 10:23:44;;;;;;;;;;;;;;;-144.99;nan;52350.25;5005379;28;19951;-73
2023/08/04 10:26:11;;;;;;;;;;;;;;;-144.99;nan;52366.56;5000505;28;20006;-73
2023/08/04 10:28:59;;;;;;;;;;;;;;;-144.99;nan;52399.19;5000109;28;19984;-75
2023/08/04 10:31:40;;;;;;;;;;;;;;;-144.99;nan;52350.25;5001892;28;20649;-74
2023/08/04 10:34:16;;;;;;;;;;;;;;;-144.99;nan;52333.94;4997635;28;19959;-74
2023/08/04 10:36:53;;;;;;;;;;;;;;;-144.99;nan;52378.78;4995014;28;19980;-75
2023/08/04 10:39:26;;;;;;;;;;;;;;;-144.99;nan;52262.63;4997368;28;19947;-73
2023/08/04 10:41:53;;;;;;;;;;;;;;;-144.99;nan;52317.66;4995796;28;20312;-74
2023/08/04 10:44:20;;;;;;;;;;;;;;;-144.99;nan;52303.38;4992239;28;20380;-73
2023/08/04 10:46:48;;;;;;;;;;;;;;;-144.99;nan;52321.72;5006255;28;20060;-76
2023/08/04 10:49:14;;;;;;;;;;;;;;;-144.99;nan;52338.03;4993396;28;20013;-73
2023/08/04 10:51:41;;;;;;;;;;;;;;;-144.99;nan;52354.34;4995345;28;19987;-73
2023/08/04 10:54:08;;;;;;;;;;;;;;;-144.99;nan;52342.09;4997077;28;20008;-72
2023/08/04 10:56:37;;;;;;;;;;;;;;;-144.99;nan;52362.50;4992549;28;20365;-75
2023/08/04 10:59:07;;;;;;;;;;;;;;;-144.99;nan;52370.63;5001188;28;20395;-73
2023/08/04 11:01:35;;;;;;;;;;;;;;;-144.99;nan;52338.03;5005843;28;19977;-73
2023/08/04 11:04:02;;;;;;;;;;;;;;;-144.99;nan;52352.28;4996711;28;20029;-74
2023/08/04 11:06:28;;;;;;;;;;;;;;;-144.99;nan;52378.78;4992050;28;20580;-73
2023/08/04 11:08:56;;;;;;;;;;;;;;;-144.99;nan;52382.88;5015738;28;19952;-74
2023/08/04 11:11:22;;;;;;;;;;;;;;;-144.99;nan;52391.03;5008781;28;20100;-74
2023/08/04 11:13:49;;;;;;;;;;;;;;;-144.99;nan;52366.56;5003995;28;20728;-76
2023/08/04 11:16:16;;;;;;;;;;;;;;;-144.99;nan;52386.94;4994206;28;20045;-76
2023/08/04 11:18:44;;;;;;;;;;;;;;;-144.99;nan;52366.56;4996754;28;19952;-74
2023/08/04 11:21:10;;;;;;;;;;;;;;;-144.99;nan;52260.56;5007345;28;20045;-73
2023/08/04 11:23:37;;;;;;;;;;;;;;;-144.99;nan;52370.63;4992987;28;19949;-73
2023/08/04 11:26:03;;;;;;;;;;;;;;;-144.99;nan;52384.91;5000797;28;20019;-72
2023/08/04 11:28:32;;;;;;;;;;;;;;;-144.99;nan;52378.78;4995673;28;19950;-74
2023/08/04 11:31:05;;;;;;;;;;;;;;;-144.99;nan;52250.38;4992581;28;19968;-74
2023/08/04 11:33:31;;;;;;;;;;;;;;;-144.99;nan;52248.34;5000981;28;20365;-74
2023/08/04 11:36:00;;;;;;;;;;;;;;;-144.99;nan;52305.41;5000529;28;20342;-74
2023/08/04 11:38:26;;;;;;;;;;;;;;;-144.99;nan;52219.81;5001433;28;20032;-73
2023/08/04 11:40:55;;;;;;;;;;;;;;;-144.99;nan;52168.84;4997078;28;20045;-74
2023/08/04 11:43:22;;;;;;;;;;;;;;;-144.99;nan;52195.34;4999942;28;19954;-75
2023/08/04 11:45:49;;;;;;;;;;;;;;;-144.99;nan;52195.34;5003651;28;19987;-75
2023/08/04 11:48:15;;;;;;;;;;;;;;;-144.99;nan;52187.19;4995800;28;19955;-77
2023/08/04 11:50:42;;;;;;;;;;;;;;;-144.99;nan;52199.44;4997099;28;19968;-75
2023/08/04 11:53:14;;;;;;;;;;;;;;;-144.99;nan;52172.94;4994351;28;20146;-76
2023/08/04 11:55:52;;;;;;;;;;;;;;;-144.99;nan;52207.59;5004108;28;20346;-74
2023/08/04 11:58:28;;;;;;;;;;;;;;;-144.99;nan;52203.50;5003609;28;19950;-74
2023/08/04 12:00:55;;;;;;;;;;;;;;;-144.99;nan;52113.84;4998493;28;19948;-75
2023/08/04 12:03:21;;;;;;;;;;;;;;;-144.99;nan;52219.81;4996518;28;19979;-75
2023/08/04 12:05:48;;;;;;;;;;;;;;;-144.99;nan;52199.44;4999112;28;20034;-75
2023/08/04 12:08:16;;;;;;;;;;;;;;;-144.99;nan;52272.81;4993184;28;19949;-75
2023/08/04 12:10:42;;;;;;;;;;;;;;;-144.99;nan;52295.22;5009915;28;19970;-75
2023/08/04 12:13:09;;;;;;;;;;;;;;;-144.99;nan;52268.72;4996382;28;19953;-75
2023/08/04 12:15:50;;;;;;;;;;;;;;;-144.99;nan;52191.28;4993448;28;20365;-75
2023/08/04 12:18:23;;;;;;;;;;;;;;;-144.99;nan;52321.72;4991400;28;20099;-74
2023/08/04 12:20:50;;;;;;;;;;;;;;;-144.99;nan;52317.66;4992821;28;20002;-74
2023/08/04 12:23:17;;;;;;;;;;;;;;;-144.99;nan;52311.53;4996857;28;19948;-74
2023/08/04 12:25:44;;;;;;;;;;;;;;;-144.99;nan;52321.72;4995540;28;20001;-73
2023/08/04 12:28:12;;;;;;;;;;;;;;;-144.99;nan;52305.41;4995610;28;20523;-73
2023/08/04 12:30:39;;;;;;;;;;;;;;;-144.99;nan;52342.09;5001836;28;19965;-73
2023/08/04 12:33:05;;;;;;;;;;;;;;;-144.99;nan;52313.56;4997678;28;19986;-74
2023/08/04 12:35:32;;;;;;;;;;;;;;;-144.99;nan;52252.44;4994989;28;20006;-74
2023/08/04 12:37:59;;;;;;;;;;;;;;;-144.99;nan;52227.97;4995751;28;19950;-73
2023/08/04 12:40:27;;;;;;;;;;;;;;;-144.99;nan;52262.63;4999736;28;19954;-73
2023/08/04 12:42:54;;;;;;;;;;;;;;;-144.99;nan;52256.50;4995664;28;20040;-71
2023/08/04 12:45:20;;;;;;;;;;;;;;;-144.99;nan;52193.31;5004469;28;19955;-72
2023/08/04 12:47:47;;;;;;;;;;;;;;;-144.99;nan;52232.03;5006005;28;19952;-72